Time;durP1;ratioP1;P1;durP2;ratioP2;P2;SDS_P1;SDS_P2;PMS_P1;PMS_P2;Temp;Humidity;BMP_temperature;BMP_pressure;BME280_temperature;BME280_humidity;BME280_pressure;Samples;Min_cycle;Max_cycle;Signal;HPM_P1;HPM_P2
2022/07/20 00:00:07;;;;;;;8.27;3.40;;;;;;;;;;4985870;28;20057;-59
2022/07/20 00:02:32;;;;;;;6.47;2.83;;;;;;;;;;4984738;28;20042;-59
2022/07/20 00:04:58;;;;;;;7.68;3.22;;;;;;;;;;4986155;28;20560;-59
2022/07/20 00:07:23;;;;;;;5.95;2.92;;;;;;;;;;4984742;28;20039;-59
2022/07/20 00:12:33;;;;;;;5.25;2.72;;;;;;;;;;4985719;28;20080;-60
2022/07/20 00:14:58;;;;;;;2.60;2.35;;;;;;;;;;4983119;28;20050;-61
2022/07/20 00:17:24;;;;;;;5.47;2.63;;;;;;;;;;4983246;28;20042;-60
2022/07/20 00:19:49;;;;;;;4.93;2.60;;;;;;;;;;4982250;28;20046;-60
2022/07/20 00:22:15;;;;;;;6.55;2.75;;;;;;;;;;4989808;28;20033;-60
2022/07/20 00:24:40;;;;;;;6.93;2.85;;;;;;;;;;4988994;28;20053;-60
2022/07/20 00:27:05;;;;;;;9.35;2.65;;;;;;;;;;4986319;28;20054;-60
2022/07/20 00:29:31;;;;;;;3.47;2.70;;;;;;;;;;4987868;28;20050;-60
2022/07/20 00:31:56;;;;;;;5.07;2.85;;;;;;;;;;4983799;28;20535;-60
2022/07/20 00:34:22;;;;;;;6.57;2.30;;;;;;;;;;4988581;28;20054;-60
2022/07/20 00:36:47;;;;;;;3.17;2.50;;;;;;;;;;4986793;28;20495;-60
2022/07/20 00:39:12;;;;;;;5.10;2.35;;;;;;;;;;4986373;28;20038;-59
2022/07/20 00:41:38;;;;;;;4.43;2.70;;;;;;;;;;4989095;28;20046;-59
2022/07/20 00:44:06;;;;;;;4.45;2.78;;;;;;;;;;4988551;28;20042;-60
2022/07/20 00:46:35;;;;;;;4.70;2.35;;;;;;;;;;4986319;28;20101;-59
2022/07/20 00:49:01;;;;;;;3.78;2.33;;;;;;;;;;4986471;28;20045;-62
2022/07/20 00:51:27;;;;;;;4.55;2.60;;;;;;;;;;4989288;28;20081;-59
2022/07/20 00:53:53;;;;;;;7.13;2.60;;;;;;;;;;4987140;28;20504;-60
2022/07/20 00:56:20;;;;;;;5.72;2.30;;;;;;;;;;4991652;28;20112;-60
2022/07/20 00:58:46;;;;;;;4.72;2.42;;;;;;;;;;4986354;28;20082;-60
2022/07/20 01:01:12;;;;;;;5.43;2.50;;;;;;;;;;4988187;28;20066;-60
2022/07/20 01:03:38;;;;;;;7.32;2.58;;;;;;;;;;4992625;28;20033;-60
2022/07/20 01:06:04;;;;;;;3.53;2.60;;;;;;;;;;4989720;28;20499;-60
2022/07/20 01:08:31;;;;;;;4.05;2.50;;;;;;;;;;4983712;28;20038;-60
2022/07/20 01:10:57;;;;;;;7.53;2.55;;;;;;;;;;4987627;28;20047;-59
2022/07/20 01:13:22;;;;;;;4.97;2.60;;;;;;;;;;4987567;28;20566;-60
2022/07/20 01:15:48;;;;;;;5.45;2.38;;;;;;;;;;4987744;28;20117;-60
2022/07/20 01:18:13;;;;;;;4.65;2.40;;;;;;;;;;4992477;28;20416;-63
2022/07/20 01:20:44;;;;;;;6.20;2.80;;;;;;;;;;4985378;28;20070;-62
2022/07/20 01:23:09;;;;;;;7.65;2.60;;;;;;;;;;4987950;28;20459;-59
2022/07/20 01:25:35;;;;;;;3.65;2.40;;;;;;;;;;4985881;28;20052;-60
2022/07/20 01:28:05;;;;;;;5.10;2.88;;;;;;;;;;4985545;28;20069;-60
2022/07/20 01:30:31;;;;;;;4.20;2.65;;;;;;;;;;4989070;28;20058;-60
2022/07/20 01:32:56;;;;;;;5.70;2.80;;;;;;;;;;4986910;28;20048;-59
2022/07/20 01:35:21;;;;;;;2.70;2.42;;;;;;;;;;4985729;28;20624;-60
2022/07/20 01:37:47;;;;;;;3.78;2.63;;;;;;;;;;4970757;28;20410;-60
2022/07/20 01:40:12;;;;;;;5.25;2.83;;;;;;;;;;4971928;28;20035;-60
2022/07/20 01:42:38;;;;;;;5.57;3.53;;;;;;;;;;4989222;28;20447;-60
2022/07/20 01:45:04;;;;;;;7.03;2.65;;;;;;;;;;4987009;28;20052;-60
2022/07/20 01:47:29;;;;;;;4.50;2.85;;;;;;;;;;4990386;28;20053;-60
2022/07/20 01:49:54;;;;;;;4.65;2.55;;;;;;;;;;4983340;28;20047;-60
2022/07/20 01:52:20;;;;;;;5.07;2.33;;;;;;;;;;4983081;28;20116;-60
2022/07/20 01:54:45;;;;;;;5.78;2.28;;;;;;;;;;4988988;28;20646;-60
2022/07/20 01:57:11;;;;;;;3.10;2.42;;;;;;;;;;4987512;28;20596;-59
2022/07/20 01:59:36;;;;;;;4.90;2.33;;;;;;;;;;4989068;28;20133;-60
2022/07/20 02:02:01;;;;;;;6.65;2.42;;;;;;;;;;4977992;28;20500;-60
2022/07/20 02:04:27;;;;;;;4.13;2.38;;;;;;;;;;4987033;28;20050;-59
2022/07/20 02:06:52;;;;;;;4.75;2.47;;;;;;;;;;4985491;28;20077;-60
2022/07/20 02:09:18;;;;;;;5.13;2.58;;;;;;;;;;4984892;28;20042;-59
2022/07/20 02:11:43;;;;;;;6.80;2.70;;;;;;;;;;4983655;28;20038;-59
2022/07/20 02:14:08;;;;;;;4.53;2.10;;;;;;;;;;4989873;28;20100;-60
2022/07/20 02:16:34;;;;;;;5.90;2.45;;;;;;;;;;4984800;28;20061;-60
2022/07/20 02:19:00;;;;;;;4.18;2.40;;;;;;;;;;4985480;28;20034;-60
2022/07/20 02:21:26;;;;;;;3.17;2.25;;;;;;;;;;4993426;28;20045;-60
2022/07/20 02:23:52;;;;;;;5.88;2.25;;;;;;;;;;4984427;28;20046;-60
2022/07/20 02:26:18;;;;;;;3.67;2.17;;;;;;;;;;4986044;28;20090;-60
2022/07/20 02:28:44;;;;;;;3.05;2.22;;;;;;;;;;4981054;28;20050;-60
2022/07/20 02:31:10;;;;;;;3.65;2.65;;;;;;;;;;4990598;28;20421;-60
2022/07/20 02:33:35;;;;;;;7.18;2.42;;;;;;;;;;4983937;28;20030;-60
2022/07/20 02:36:01;;;;;;;4.13;2.25;;;;;;;;;;4985450;28;20551;-61
2022/07/20 02:38:27;;;;;;;2.67;2.40;;;;;;;;;;4986032;28;20038;-60
2022/07/20 02:40:52;;;;;;;3.88;2.20;;;;;;;;;;4980241;28;20086;-60
2022/07/20 02:43:18;;;;;;;3.75;2.10;;;;;;;;;;4985850;28;20038;-60
2022/07/20 02:45:44;;;;;;;3.13;2.30;;;;;;;;;;4984437;28;20038;-60
2022/07/20 02:48:10;;;;;;;6.75;2.50;;;;;;;;;;4989933;28;20062;-59
2022/07/20 02:50:38;;;;;;;6.10;2.20;;;;;;;;;;4985901;28;20129;-61
2022/07/20 02:53:04;;;;;;;7.38;2.70;;;;;;;;;;4989895;28;20073;-60
2022/07/20 02:55:30;;;;;;;3.72;2.40;;;;;;;;;;4985316;28;20046;-61
2022/07/20 02:57:56;;;;;;;3.05;2.28;;;;;;;;;;4986202;28;20034;-60
2022/07/20 03:00:22;;;;;;;5.18;2.53;;;;;;;;;;4980487;28;20393;-60
2022/07/20 03:02:48;;;;;;;5.47;2.25;;;;;;;;;;4985942;28;20034;-60
2022/07/20 03:05:14;;;;;;;6.32;2.70;;;;;;;;;;4984187;28;20038;-60
2022/07/20 03:07:39;;;;;;;3.47;2.38;;;;;;;;;;4982690;28;21189;-60
2022/07/20 03:10:06;;;;;;;5.32;2.78;;;;;;;;;;4985174;28;20034;-60
2022/07/20 03:12:31;;;;;;;6.57;2.80;;;;;;;;;;4987116;28;20045;-61
2022/07/20 03:14:57;;;;;;;6.10;2.95;;;;;;;;;;4986926;28;20047;-59
2022/07/20 03:17:23;;;;;;;4.50;2.53;;;;;;;;;;4988117;28;20136;-60
2022/07/20 03:19:48;;;;;;;5.57;2.30;;;;;;;;;;4981706;28;20058;-60
2022/07/20 03:22:13;;;;;;;6.47;2.28;;;;;;;;;;4985690;28;20038;-60
2022/07/20 03:24:39;;;;;;;3.28;1.98;;;;;;;;;;4985335;28;20504;-65
2022/07/20 03:27:04;;;;;;;5.38;2.38;;;;;;;;;;4990227;28;20053;-62
2022/07/20 03:29:30;;;;;;;4.30;2.30;;;;;;;;;;4983665;28;20392;-60
2022/07/20 03:31:56;;;;;;;5.13;2.20;;;;;;;;;;4985668;28;20058;-60
2022/07/20 03:34:21;;;;;;;3.58;2.33;;;;;;;;;;4984806;28;20034;-60
2022/07/20 03:36:48;;;;;;;5.63;2.20;;;;;;;;;;4985377;28;20109;-60
2022/07/20 03:39:14;;;;;;;6.53;2.85;;;;;;;;;;4987069;28;20058;-60
2022/07/20 03:41:40;;;;;;;6.60;2.30;;;;;;;;;;4984414;28;20629;-61
2022/07/20 03:44:05;;;;;;;5.72;2.47;;;;;;;;;;4984824;28;20118;-62
2022/07/20 03:46:30;;;;;;;7.35;2.50;;;;;;;;;;4990027;28;20104;-61
2022/07/20 03:48:56;;;;;;;6.55;2.50;;;;;;;;;;4984089;28;20081;-61
2022/07/20 03:51:21;;;;;;;6.57;2.50;;;;;;;;;;4985510;28;20516;-61
2022/07/20 03:53:47;;;;;;;5.38;2.78;;;;;;;;;;4982213;28;20074;-60
2022/07/20 03:56:12;;;;;;;3.22;2.50;;;;;;;;;;4986019;28;20038;-60
2022/07/20 03:58:37;;;;;;;5.05;2.47;;;;;;;;;;4987875;28;20050;-61
2022/07/20 04:01:03;;;;;;;5.40;2.40;;;;;;;;;;4985359;28;20042;-60
2022/07/20 04:03:28;;;;;;;5.30;2.35;;;;;;;;;;4990705;28;20361;-60
2022/07/20 04:05:53;;;;;;;5.45;2.30;;;;;;;;;;4983708;28;20038;-60
2022/07/20 04:08:19;;;;;;;6.28;2.40;;;;;;;;;;4990215;28;20049;-60
2022/07/20 04:10:44;;;;;;;5.28;2.30;;;;;;;;;;4984730;28;20054;-60
2022/07/20 04:13:09;;;;;;;4.53;2.33;;;;;;;;;;4987823;28;20045;-60
2022/07/20 04:15:35;;;;;;;6.95;2.50;;;;;;;;;;4988771;28;20559;-60
2022/07/20 04:18:00;;;;;;;8.30;2.67;;;;;;;;;;4986036;28;20058;-60
2022/07/20 04:20:26;;;;;;;4.10;2.50;;;;;;;;;;4986907;28;20062;-59
2022/07/20 04:22:51;;;;;;;3.53;2.20;;;;;;;;;;4988227;28;20046;-61
2022/07/20 04:25:17;;;;;;;4.82;2.50;;;;;;;;;;4990660;28;20114;-60
2022/07/20 04:27:43;;;;;;;6.03;2.40;;;;;;;;;;4988025;28;20464;-60
2022/07/20 04:30:09;;;;;;;8.82;2.72;;;;;;;;;;4987100;28;20046;-60
2022/07/20 04:32:35;;;;;;;4.90;2.58;;;;;;;;;;4986876;28;20097;-60
2022/07/20 04:35:00;;;;;;;8.07;2.30;;;;;;;;;;4990276;28;20077;-59
2022/07/20 04:37:25;;;;;;;4.90;2.42;;;;;;;;;;4992825;28;20038;-58
2022/07/20 04:39:51;;;;;;;4.35;2.25;;;;;;;;;;4985185;28;20125;-59
2022/07/20 04:42:16;;;;;;;4.35;2.60;;;;;;;;;;4988106;28;20089;-60
2022/07/20 04:44:42;;;;;;;6.72;2.90;;;;;;;;;;4988754;28;20066;-61
2022/07/20 04:47:07;;;;;;;4.45;2.47;;;;;;;;;;4991093;28;20054;-61
2022/07/20 04:49:32;;;;;;;4.75;2.70;;;;;;;;;;4984100;28;20046;-61
2022/07/20 04:51:58;;;;;;;4.13;2.50;;;;;;;;;;4989865;28;20032;-61
2022/07/20 04:54:23;;;;;;;4.38;2.63;;;;;;;;;;4981716;28;20043;-62
2022/07/20 04:56:50;;;;;;;4.43;2.45;;;;;;;;;;4982929;28;21093;-61
2022/07/20 04:59:15;;;;;;;5.72;2.50;;;;;;;;;;4983992;28;20050;-61
2022/07/20 05:01:41;;;;;;;10.85;2.92;;;;;;;;;;4982653;28;20268;-60
2022/07/20 05:04:07;;;;;;;6.53;2.70;;;;;;;;;;4985749;28;20133;-61
2022/07/20 05:06:32;;;;;;;5.53;2.65;;;;;;;;;;4983692;28;20042;-59
2022/07/20 05:08:58;;;;;;;9.15;3.30;;;;;;;;;;4984144;28;20510;-59
2022/07/20 05:11:23;;;;;;;8.50;3.53;;;;;;;;;;4982956;28;20042;-59
2022/07/20 05:13:49;;;;;;;8.77;3.20;;;;;;;;;;4986217;28;20400;-60
2022/07/20 05:16:14;;;;;;;9.45;3.13;;;;;;;;;;4982506;28;20146;-59
2022/07/20 05:18:40;;;;;;;13.38;3.60;;;;;;;;;;4982405;28;20033;-60
2022/07/20 05:21:06;;;;;;;6.93;3.00;;;;;;;;;;4982726;28;20174;-59
2022/07/20 05:23:31;;;;;;;7.53;3.08;;;;;;;;;;4984832;28;20053;-59
2022/07/20 05:25:56;;;;;;;7.25;2.83;;;;;;;;;;4985277;28;20074;-65
2022/07/20 05:28:22;;;;;;;6.05;3.08;;;;;;;;;;4985807;28;20057;-63
2022/07/20 05:30:48;;;;;;;9.48;2.97;;;;;;;;;;4982238;28;20026;-65
2022/07/20 05:33:14;;;;;;;8.10;2.92;;;;;;;;;;4983902;28;20081;-63
2022/07/20 05:35:40;;;;;;;5.80;3.20;;;;;;;;;;4983964;28;20070;-62
2022/07/20 05:38:05;;;;;;;6.75;2.53;;;;;;;;;;4983999;28;20173;-64
2022/07/20 05:40:31;;;;;;;8.52;3.28;;;;;;;;;;4984672;28;20034;-65
2022/07/20 05:42:56;;;;;;;6.95;3.20;;;;;;;;;;4984199;28;20460;-63
2022/07/20 05:45:22;;;;;;;8.68;3.05;;;;;;;;;;4978977;28;20713;-63
2022/07/20 05:47:47;;;;;;;6.93;3.20;;;;;;;;;;4984351;28;20081;-64
2022/07/20 05:50:13;;;;;;;8.77;2.72;;;;;;;;;;4980447;28;20096;-63
2022/07/20 05:52:38;;;;;;;6.40;3.35;;;;;;;;;;4985259;28;20046;-63
2022/07/20 05:55:05;;;;;;;9.02;2.80;;;;;;;;;;4982652;28;20038;-62
2022/07/20 05:57:30;;;;;;;9.70;3.00;;;;;;;;;;4983442;28;20149;-62
2022/07/20 05:59:56;;;;;;;11.60;3.33;;;;;;;;;;4985512;28;20736;-62
2022/07/20 06:02:21;;;;;;;11.60;3.20;;;;;;;;;;4983220;28;21207;-63
2022/07/20 06:04:46;;;;;;;7.85;3.08;;;;;;;;;;4984855;28;20046;-62
2022/07/20 06:07:12;;;;;;;6.88;3.13;;;;;;;;;;4983930;28;20045;-62
2022/07/20 06:09:37;;;;;;;9.57;3.17;;;;;;;;;;4981126;28;20030;-62
2022/07/20 06:12:03;;;;;;;12.15;3.38;;;;;;;;;;4986546;28;20137;-62
2022/07/20 06:14:29;;;;;;;9.15;2.90;;;;;;;;;;4982520;28;20052;-62
2022/07/20 06:16:54;;;;;;;8.38;3.10;;;;;;;;;;4982812;28;20042;-63
2022/07/20 06:19:20;;;;;;;8.57;3.03;;;;;;;;;;4985896;28;20038;-63
2022/07/20 06:21:45;;;;;;;5.78;3.08;;;;;;;;;;4984362;28;20595;-62
2022/07/20 06:24:11;;;;;;;8.05;3.15;;;;;;;;;;4984900;28;20421;-64
2022/07/20 06:26:37;;;;;;;9.15;3.13;;;;;;;;;;4980563;28;20489;-63
2022/07/20 06:29:02;;;;;;;9.80;3.00;;;;;;;;;;4983242;28;20043;-64
2022/07/20 06:31:28;;;;;;;19.25;3.58;;;;;;;;;;4982924;28;20381;-63
2022/07/20 06:33:53;;;;;;;15.45;3.42;;;;;;;;;;4982699;28;20098;-63
2022/07/20 06:36:19;;;;;;;27.77;3.75;;;;;;;;;;4985814;28;20054;-63
2022/07/20 06:38:45;;;;;;;12.68;3.60;;;;;;;;;;4980619;28;20047;-65
2022/07/20 06:41:11;;;;;;;13.10;3.45;;;;;;;;;;4983793;28;20054;-65
2022/07/20 06:43:36;;;;;;;7.85;3.28;;;;;;;;;;4982480;28;20401;-64
2022/07/20 06:46:02;;;;;;;8.93;3.15;;;;;;;;;;4981921;28;20034;-64
2022/07/20 06:48:28;;;;;;;12.65;3.10;;;;;;;;;;4982933;28;20129;-65
2022/07/20 06:50:53;;;;;;;11.68;2.80;;;;;;;;;;4981163;28;20481;-65
2022/07/20 06:53:18;;;;;;;9.75;2.75;;;;;;;;;;4965830;28;20093;-65
2022/07/20 06:55:45;;;;;;;9.85;3.33;;;;;;;;;;4961849;28;20050;-64
2022/07/20 06:58:10;;;;;;;8.43;3.00;;;;;;;;;;4961621;28;20062;-65
2022/07/20 07:00:36;;;;;;;11.70;2.83;;;;;;;;;;4966135;28;20954;-65
2022/07/20 07:03:01;;;;;;;5.88;2.55;;;;;;;;;;4981272;28;20130;-67
2022/07/20 07:05:26;;;;;;;7.97;2.70;;;;;;;;;;4983738;28;20038;-65
2022/07/20 07:07:52;;;;;;;5.40;2.58;;;;;;;;;;4983783;28;20054;-65
2022/07/20 07:10:17;;;;;;;13.20;2.80;;;;;;;;;;4983166;28;20049;-65
2022/07/20 07:12:43;;;;;;;10.35;2.65;;;;;;;;;;4981565;28;20035;-64
2022/07/20 07:15:09;;;;;;;6.93;3.08;;;;;;;;;;4982088;28;20062;-65
2022/07/20 07:17:34;;;;;;;9.80;2.80;;;;;;;;;;4984765;28;20046;-66
2022/07/20 07:20:00;;;;;;;7.70;2.75;;;;;;;;;;4981023;28;20413;-65
2022/07/20 07:22:26;;;;;;;7.07;2.38;;;;;;;;;;4984477;28;20080;-65
2022/07/20 07:24:51;;;;;;;6.50;2.88;;;;;;;;;;4981900;28;20692;-66
2022/07/20 07:27:17;;;;;;;7.30;2.40;;;;;;;;;;4981300;28;20042;-66
2022/07/20 07:29:42;;;;;;;8.10;2.60;;;;;;;;;;4985291;28;20054;-65
2022/07/20 07:32:07;;;;;;;11.38;3.00;;;;;;;;;;4982375;28;20054;-63
2022/07/20 07:34:33;;;;;;;14.95;3.10;;;;;;;;;;4987330;28;20061;-64
2022/07/20 07:37:00;;;;;;;13.30;3.17;;;;;;;;;;4985717;28;20365;-61
2022/07/20 07:39:25;;;;;;;8.27;2.95;;;;;;;;;;4986785;28;20439;-60
2022/07/20 07:41:50;;;;;;;11.80;3.00;;;;;;;;;;4988531;28;20113;-61
2022/07/20 07:44:16;;;;;;;10.40;3.10;;;;;;;;;;4988397;28;20049;-61
2022/07/20 07:46:41;;;;;;;9.57;2.47;;;;;;;;;;4986248;28;20055;-60
2022/07/20 07:49:07;;;;;;;7.95;2.60;;;;;;;;;;4987142;28;20048;-61
2022/07/20 07:51:32;;;;;;;17.45;3.05;;;;;;;;;;4988352;28;20455;-60
2022/07/20 07:53:58;;;;;;;6.57;2.45;;;;;;;;;;4993001;28;20042;-61
2022/07/20 07:56:24;;;;;;;10.57;2.65;;;;;;;;;;4988332;28;20046;-62
2022/07/20 07:58:50;;;;;;;8.57;2.78;;;;;;;;;;4985539;28;20051;-60
2022/07/20 08:01:15;;;;;;;12.32;2.97;;;;;;;;;;4985192;28;21111;-60
2022/07/20 08:03:41;;;;;;;12.45;3.15;;;;;;;;;;4983221;28;20043;-60
2022/07/20 08:06:06;;;;;;;7.47;2.70;;;;;;;;;;4985911;28;20047;-60
2022/07/20 08:08:32;;;;;;;7.38;2.92;;;;;;;;;;4986548;28;20038;-62
2022/07/20 08:10:58;;;;;;;8.77;3.22;;;;;;;;;;4981869;28;20046;-64
2022/07/20 08:13:24;;;;;;;4.05;2.70;;;;;;;;;;4988138;28;20050;-61
2022/07/20 08:15:49;;;;;;;6.40;2.72;;;;;;;;;;4989730;28;20034;-61
2022/07/20 08:18:15;;;;;;;7.15;3.15;;;;;;;;;;4990161;28;20046;-61
2022/07/20 08:20:40;;;;;;;7.78;2.92;;;;;;;;;;4987659;28;20413;-61
2022/07/20 08:23:06;;;;;;;7.68;2.75;;;;;;;;;;4989475;28;20061;-60
2022/07/20 08:25:32;;;;;;;6.88;2.55;;;;;;;;;;4986296;28;20047;-60
2022/07/20 08:28:12;;;;;;;12.38;3.17;;;;;;;;;;4988914;28;20100;-62
2022/07/20 08:30:39;;;;;;;5.63;2.72;;;;;;;;;;4988464;28;20081;-61
2022/07/20 08:33:05;;;;;;;4.32;2.80;;;;;;;;;;4987361;28;20050;-62
2022/07/20 08:35:30;;;;;;;7.93;2.67;;;;;;;;;;4984688;28;20061;-63
2022/07/20 08:37:56;;;;;;;7.35;2.97;;;;;;;;;;4987921;28;20054;-60
2022/07/20 08:40:22;;;;;;;7.43;3.03;;;;;;;;;;4983076;28;20085;-59
2022/07/20 08:42:48;;;;;;;8.68;2.97;;;;;;;;;;4981698;28;20660;-60
2022/07/20 08:45:13;;;;;;;7.97;3.05;;;;;;;;;;4981327;28;20103;-60
2022/07/20 08:47:41;;;;;;;8.40;3.03;;;;;;;;;;4989423;28;20439;-62
2022/07/20 08:50:07;;;;;;;5.10;2.85;;;;;;;;;;4989925;28;20511;-59
2022/07/20 08:52:32;;;;;;;6.63;2.97;;;;;;;;;;4987808;28;20046;-61
2022/07/20 08:54:58;;;;;;;5.85;3.20;;;;;;;;;;4985303;28;20033;-60
2022/07/20 08:57:23;;;;;;;5.75;2.95;;;;;;;;;;4988262;28;20092;-61
2022/07/20 08:59:48;;;;;;;7.05;3.13;;;;;;;;;;4982867;28;20046;-61
2022/07/20 09:02:15;;;;;;;4.40;3.10;;;;;;;;;;4982189;28;20050;-61
2022/07/20 09:04:54;;;;;;;10.18;3.28;;;;;;;;;;4980499;28;20133;-61
2022/07/20 09:07:43;;;;;;;10.18;3.30;;;;;;;;;;4984829;28;20049;-61
2022/07/20 09:10:15;;;;;;;7.05;3.17;;;;;;;;;;4984164;28;20086;-61
2022/07/20 09:13:13;;;;;;;6.10;2.95;;;;;;;;;;4979071;28;20424;-60
2022/07/20 09:15:45;;;;;;;7.53;3.00;;;;;;;;;;4976617;28;20065;-61
2022/07/20 09:18:13;;;;;;;8.45;3.00;;;;;;;;;;4983243;28;20046;-60
2022/07/20 09:20:50;;;;;;;11.50;3.50;;;;;;;;;;4998213;28;20448;-60
2022/07/20 09:23:21;;;;;;;10.10;3.53;;;;;;;;;;4984638;28;20504;-60
2022/07/20 09:25:56;;;;;;;8.40;3.13;;;;;;;;;;4988761;28;20392;-61
2022/07/20 09:28:26;;;;;;;7.95;3.40;;;;;;;;;;4985564;28;20149;-60
2022/07/20 09:30:54;;;;;;;9.02;3.10;;;;;;;;;;4982952;28;20113;-60
2022/07/20 09:33:27;;;;;;;7.95;3.50;;;;;;;;;;4987141;28;20054;-59
2022/07/20 09:35:54;;;;;;;9.10;3.50;;;;;;;;;;4986495;28;20049;-60
2022/07/20 09:38:22;;;;;;;10.13;3.83;;;;;;;;;;4986160;28;20050;-61
2022/07/20 09:40:47;;;;;;;8.55;3.30;;;;;;;;;;4981892;28;20065;-61
2022/07/20 09:43:36;;;;;;;10.13;3.40;;;;;;;;;;4986427;28;20653;-61
2022/07/20 09:46:20;;;;;;;10.45;3.40;;;;;;;;;;4980000;28;20046;-61
2022/07/20 09:48:53;;;;;;;10.48;3.63;;;;;;;;;;4980820;28;20446;-62
2022/07/20 09:51:20;;;;;;;6.13;3.25;;;;;;;;;;4984479;28;20415;-61
2022/07/20 09:53:46;;;;;;;6.47;3.25;;;;;;;;;;4981595;28;20758;-60
2022/07/20 09:56:15;;;;;;;4.90;3.40;;;;;;;;;;4981195;28;20046;-61
2022/07/20 09:58:41;;;;;;;7.30;2.80;;;;;;;;;;4981145;28;20073;-60
2022/07/20 10:01:07;;;;;;;11.25;3.50;;;;;;;;;;4981912;28;20030;-60
2022/07/20 10:03:33;;;;;;;8.88;3.80;;;;;;;;;;4984327;28;20029;-61
2022/07/20 10:05:58;;;;;;;13.00;3.55;;;;;;;;;;4986408;28;20104;-60
2022/07/20 10:08:24;;;;;;;10.45;4.05;;;;;;;;;;4981701;28;20120;-62
2022/07/20 10:10:50;;;;;;;7.82;3.50;;;;;;;;;;4984067;28;20046;-60
2022/07/20 10:13:16;;;;;;;8.10;3.65;;;;;;;;;;4983235;28;20038;-60
2022/07/20 10:16:01;;;;;;;7.03;3.72;;;;;;;;;;4984746;28;20411;-60
2022/07/20 10:18:27;;;;;;;14.43;3.97;;;;;;;;;;4983992;28;20046;-61
2022/07/20 10:20:53;;;;;;;6.22;3.80;;;;;;;;;;4987531;28;20054;-61
2022/07/20 10:23:29;;;;;;;7.93;3.92;;;;;;;;;;4981514;28;20509;-61
2022/07/20 10:25:56;;;;;;;8.98;3.53;;;;;;;;;;4986467;28;20046;-60
2022/07/20 10:28:33;;;;;;;6.60;3.55;;;;;;;;;;4983804;28;20045;-60
2022/07/20 10:31:03;;;;;;;6.50;3.58;;;;;;;;;;4981003;28;20042;-60
2022/07/20 10:33:30;;;;;;;10.50;4.45;;;;;;;;;;4983405;28;20046;-60
2022/07/20 10:36:41;;;;;;;8.27;3.55;;;;;;;;;;4986968;28;20441;-60
2022/07/20 10:38:45;;;;;;;6.10;3.63;;;;;;;;;;4978725;28;20063;-60
2022/07/20 10:44:31;;;;;;;13.50;3.88;;;;;;;;;;4984266;28;20112;-60
2022/07/20 10:46:56;;;;;;;8.07;3.63;;;;;;;;;;4950095;28;20126;-60
2022/07/20 10:50:03;;;;;;;9.23;3.83;;;;;;;;;;4971183;28;20639;-60
2022/07/20 10:52:33;;;;;;;11.15;3.38;;;;;;;;;;4981058;28;20068;-61
2022/07/20 10:54:59;;;;;;;6.78;3.55;;;;;;;;;;4980805;28;20105;-60
2022/07/20 10:57:25;;;;;;;7.78;3.55;;;;;;;;;;4980018;28;20070;-61
2022/07/20 11:00:08;;;;;;;11.88;4.32;;;;;;;;;;4979004;28;20055;-59
2022/07/20 11:02:35;;;;;;;7.55;3.75;;;;;;;;;;4980287;28;20054;-60
2022/07/20 11:05:00;;;;;;;8.48;4.00;;;;;;;;;;4982440;28;20121;-61
2022/07/20 11:07:31;;;;;;;8.13;3.25;;;;;;;;;;4984704;28;20440;-60
2022/07/20 11:09:57;;;;;;;12.02;3.70;;;;;;;;;;4985881;28;20062;-61
2022/07/20 11:12:29;;;;;;;14.27;4.25;;;;;;;;;;4983890;28;20475;-62
2022/07/20 11:14:56;;;;;;;9.55;3.83;;;;;;;;;;4984852;28;20133;-61
2022/07/20 11:17:22;;;;;;;10.25;3.65;;;;;;;;;;4982163;28;20078;-62
2022/07/20 11:19:48;;;;;;;6.97;4.22;;;;;;;;;;4985541;28;20066;-61
2022/07/20 11:22:14;;;;;;;8.43;3.78;;;;;;;;;;4985371;28;20042;-62
2022/07/20 11:24:39;;;;;;;6.05;3.90;;;;;;;;;;4984211;28;20383;-60
2022/07/20 11:27:15;;;;;;;10.55;4.05;;;;;;;;;;4986693;28;20057;-62
2022/07/20 11:29:51;;;;;;;12.02;3.72;;;;;;;;;;4983257;28;20047;-61
2022/07/20 11:32:17;;;;;;;9.55;3.55;;;;;;;;;;4974001;28;20093;-62
2022/07/20 11:34:47;;;;;;;15.35;3.85;;;;;;;;;;4983778;28;20078;-61
2022/07/20 11:37:15;;;;;;;11.70;4.30;;;;;;;;;;4985642;28;20381;-61
2022/07/20 11:39:40;;;;;;;9.93;4.05;;;;;;;;;;4982904;28;20033;-60
2022/07/20 11:42:16;;;;;;;4.75;3.70;;;;;;;;;;4986895;28;20050;-59
2022/07/20 11:44:58;;;;;;;7.80;3.80;;;;;;;;;;4984197;28;20047;-61
2022/07/20 11:47:23;;;;;;;;;;;;;;;;;;4986269;28;20476;-60
2022/07/20 11:50:03;;;;;;;8.10;4.13;;;;;;;;;;4980615;28;19972;-61
2022/07/20 11:52:37;;;;;;;7.55;4.60;;;;;;;;;;4983325;28;20631;-60
2022/07/20 11:55:03;;;;;;;9.25;4.57;;;;;;;;;;4982496;28;20087;-61
2022/07/20 11:57:29;;;;;;;14.95;5.32;;;;;;;;;;4985227;28;20366;-60
2022/07/20 11:59:54;;;;;;;10.73;5.18;;;;;;;;;;4985122;28;20551;-61
2022/07/20 12:02:21;;;;;;;8.85;4.68;;;;;;;;;;4982096;28;20122;-61
2022/07/20 12:04:46;;;;;;;9.32;4.43;;;;;;;;;;4984854;28;20481;-61
2022/07/20 12:10:07;;;;;;;15.80;5.70;;;;;;;;;;4980426;28;20093;-61
2022/07/20 12:12:44;;;;;;;12.88;6.38;;;;;;;;;;4983754;28;20492;-60
2022/07/20 12:15:10;;;;;;;15.48;5.80;;;;;;;;;;4980240;28;20053;-60
2022/07/20 12:17:45;;;;;;;11.32;6.75;;;;;;;;;;4985370;28;20534;-60
2022/07/20 12:20:11;;;;;;;15.00;5.93;;;;;;;;;;4983972;28;20104;-61
2022/07/20 12:22:36;;;;;;;14.43;6.38;;;;;;;;;;4988588;28;20039;-61
2022/07/20 12:25:12;;;;;;;12.80;7.22;;;;;;;;;;4987007;28;20038;-62
2022/07/20 12:27:39;;;;;;;11.00;7.25;;;;;;;;;;4988852;28;20077;-62
2022/07/20 12:30:23;;;;;;;16.20;6.63;;;;;;;;;;4985074;28;20090;-61
2022/07/20 12:33:08;;;;;;;20.10;6.10;;;;;;;;;;4987342;28;20038;-62
2022/07/20 12:35:35;;;;;;;13.60;6.13;;;;;;;;;;4987547;28;20046;-60
2022/07/20 12:38:01;;;;;;;15.32;6.57;;;;;;;;;;4990309;28;20039;-62
2022/07/20 12:40:38;;;;;;;12.38;7.00;;;;;;;;;;4986487;28;20493;-60
2022/07/20 12:43:25;;;;;;;12.13;6.78;;;;;;;;;;4988458;28;20034;-60
2022/07/20 12:45:50;;;;;;;15.93;6.78;;;;;;;;;;4985845;28;20161;-62
2022/07/20 12:48:16;;;;;;;13.07;7.43;;;;;;;;;;4988944;28;20129;-60
2022/07/20 12:50:41;;;;;;;10.15;6.47;;;;;;;;;;4987502;28;20522;-61
2022/07/20 12:53:06;;;;;;;11.32;6.55;;;;;;;;;;4991609;28;20050;-61
2022/07/20 12:55:36;;;;;;;11.55;6.70;;;;;;;;;;4986164;28;20042;-60
2022/07/20 12:58:02;;;;;;;15.20;6.50;;;;;;;;;;4988879;28;20042;-60
2022/07/20 13:00:27;;;;;;;12.43;6.57;;;;;;;;;;4985754;28;20053;-61
2022/07/20 13:02:53;;;;;;;9.65;6.20;;;;;;;;;;4983963;28;20056;-61
2022/07/20 13:05:18;;;;;;;11.82;6.45;;;;;;;;;;4986607;28;20067;-61
2022/07/20 13:07:46;;;;;;;9.95;6.65;;;;;;;;;;4991265;28;20107;-59
2022/07/20 13:10:12;;;;;;;12.27;6.70;;;;;;;;;;4985489;28;20042;-59
2022/07/20 13:12:37;;;;;;;26.00;7.43;;;;;;;;;;4986069;28;20030;-60
2022/07/20 13:15:03;;;;;;;10.40;6.38;;;;;;;;;;4985426;28;20042;-60
2022/07/20 13:17:29;;;;;;;15.63;7.68;;;;;;;;;;4987087;28;20113;-62
2022/07/20 13:19:54;;;;;;;13.77;6.68;;;;;;;;;;4987917;28;20437;-60
2022/07/20 13:22:20;;;;;;;10.45;6.50;;;;;;;;;;4985648;28;20022;-60
2022/07/20 13:24:45;;;;;;;13.15;6.47;;;;;;;;;;4985603;28;20109;-61
2022/07/20 13:27:10;;;;;;;14.68;6.90;;;;;;;;;;4985642;28;20046;-61
2022/07/20 13:29:36;;;;;;;11.50;6.40;;;;;;;;;;4984572;28;20045;-61
2022/07/20 13:32:01;;;;;;;13.07;6.68;;;;;;;;;;4987282;28;20060;-61
2022/07/20 13:34:26;;;;;;;13.95;6.85;;;;;;;;;;4989728;28;20092;-61
2022/07/20 13:36:52;;;;;;;10.25;7.25;;;;;;;;;;4988657;28;20030;-61
2022/07/20 13:39:17;;;;;;;14.07;6.88;;;;;;;;;;4986540;28;20514;-61
2022/07/20 13:41:43;;;;;;;12.18;7.10;;;;;;;;;;4984365;28;20656;-61
2022/07/20 13:44:08;;;;;;;14.75;7.18;;;;;;;;;;4983896;28;20130;-60
2022/07/20 13:46:33;;;;;;;15.23;6.85;;;;;;;;;;4985956;28;20050;-60
2022/07/20 13:49:00;;;;;;;10.90;6.80;;;;;;;;;;4986888;28;20069;-60
2022/07/20 13:51:26;;;;;;;12.88;7.90;;;;;;;;;;4985751;28;20042;-63
2022/07/20 13:53:51;;;;;;;15.30;8.18;;;;;;;;;;4984887;28;20397;-60
2022/07/20 13:56:16;;;;;;;11.93;8.55;;;;;;;;;;4986364;28;20052;-61
2022/07/20 13:58:42;;;;;;;16.08;8.75;;;;;;;;;;4987004;28;20050;-61
2022/07/20 14:01:08;;;;;;;13.80;8.43;;;;;;;;;;4983328;28;20074;-61
2022/07/20 14:03:33;;;;;;;15.25;8.63;;;;;;;;;;4986961;28;20030;-61
2022/07/20 14:05:59;;;;;;;12.45;8.50;;;;;;;;;;4985319;28;20058;-62
2022/07/20 14:08:24;;;;;;;11.57;8.38;;;;;;;;;;4984133;28;20049;-62
2022/07/20 14:10:51;;;;;;;19.13;9.48;;;;;;;;;;4973664;28;20158;-61
2022/07/20 14:13:18;;;;;;;16.17;9.57;;;;;;;;;;4983974;28;20030;-61
2022/07/20 14:15:43;;;;;;;17.48;10.10;;;;;;;;;;4982248;28;20062;-61
2022/07/20 14:18:09;;;;;;;16.48;9.60;;;;;;;;;;4983408;28;20081;-60
2022/07/20 14:20:35;;;;;;;15.77;9.75;;;;;;;;;;4982732;28;20374;-60
2022/07/20 14:23:00;;;;;;;16.88;9.52;;;;;;;;;;4981436;28;20061;-60
2022/07/20 14:25:25;;;;;;;27.50;10.38;;;;;;;;;;4983293;28;20051;-61
2022/07/20 14:27:51;;;;;;;13.45;9.32;;;;;;;;;;4983306;28;20121;-60
2022/07/20 14:30:17;;;;;;;16.40;10.15;;;;;;;;;;4983701;28;20052;-60
2022/07/20 14:32:43;;;;;;;15.88;10.07;;;;;;;;;;4982918;28;20046;-60
2022/07/20 14:35:08;;;;;;;16.08;9.43;;;;;;;;;;4980155;28;20145;-62
2022/07/20 14:37:35;;;;;;;13.32;10.07;;;;;;;;;;4986515;28;20049;-61
2022/07/20 14:40:00;;;;;;;13.65;10.02;;;;;;;;;;4981743;28;20504;-61
2022/07/20 14:42:27;;;;;;;16.15;9.77;;;;;;;;;;4977737;28;20086;-60
2022/07/20 14:44:53;;;;;;;16.13;10.13;;;;;;;;;;4981854;28;20046;-61